General Aviation Weather

Text Reports

Enter one or more of the following location identifiers separated by a space:

Zip Code, Four-Character ICAO or Three-Character IATA airport codes.

METAR - Aviation Routine Weather Report
KPLU - Puyallup, Washington
Updated at 3:35 AM GMT on January 25, 2015 (7:35 PM PST):
METAR KPLU 250335Z AUTO 00000KT 10SM FEW007 BKN028 BKN036 12/12 A3024 RMK AO2
TAF - Terminal Area Forecast
KPLU - Puyallup, Washington
Updated at 3:35 AM GMT on January 25, 2015 (7:35 PM PST):
No TAF is currently available for this location.
Decoded:
No decoded TAF is available.
PIREP - Pilot Weather Report
KPLU - Puyallup, Washington
Updated at 3:35 AM GMT on January 25, 2015 (7:35 PM PST):
No PIREP is currently available for this location.
AIRMET - Airmens Meteorological Information
KPLU - Puyallup, Washington
Updated at 3:35 AM GMT on January 25, 2015 (7:35 PM PST):
No AIRMET is currently available for this location.
SIGMET - Significant Meteorological Information
KPLU - Puyallup, Washington
Updated at 3:35 AM GMT on January 25, 2015 (7:35 PM PST):
No SIGMET is currently available for this location.
NOTAM - Notice to Airmen
KPLU - Puyallup, Washington
Updated at 3:35 AM GMT on January 25, 2015 (7:35 PM PST):
No NOTAM is currently available for this location.
Forecast Area
KPLU - Puyallup, Washington
Updated at 3:35 AM GMT on January 25, 2015 (7:35 PM PST):
No NOTAM is currently available for this location.
Aviation Weather Maps